sensor_id;sensor_type;location;lat;lon;timestamp;pressure;altitude;pressure_sealevel;temperature;humidity
34742;BME280;20968;42.696;23.360;2023-02-18T00:00:21;96006.84;;;7.96;48.81
34742;BME280;20968;42.696;23.360;2023-02-18T00:02:48;96006.72;;;8.00;49.14
34742;BME280;20968;42.696;23.360;2023-02-18T00:05:14;95997.06;;;8.08;48.49
34742;BME280;20968;42.696;23.360;2023-02-18T00:07:40;95991.25;;;8.06;48.13
34742;BME280;20968;42.696;23.360;2023-02-18T00:10:11;95999.47;;;8.06;48.54
34742;BME280;20968;42.696;23.360;2023-02-18T00:12:37;95992.78;;;8.07;48.14
34742;BME280;20968;42.696;23.360;2023-02-18T00:15:03;95995.28;;;8.14;48.28
34742;BME280;20968;42.696;23.360;2023-02-18T00:17:29;95999.25;;;8.13;48.20
34742;BME280;20968;42.696;23.360;2023-02-18T00:19:54;95975.47;;;8.10;48.57
34742;BME280;20968;42.696;23.360;2023-02-18T00:22:21;95984.69;;;8.16;48.37
34742;BME280;20968;42.696;23.360;2023-02-18T00:24:46;95969.00;;;8.16;47.75
34742;BME280;20968;42.696;23.360;2023-02-18T00:27:12;95964.28;;;8.17;48.54
34742;BME280;20968;42.696;23.360;2023-02-18T00:29:37;95953.31;;;8.17;48.04
34742;BME280;20968;42.696;23.360;2023-02-18T00:32:03;95952.44;;;8.20;47.92
34742;BME280;20968;42.696;23.360;2023-02-18T00:34:28;95952.09;;;8.18;47.41
34742;BME280;20968;42.696;23.360;2023-02-18T00:36:53;95957.94;;;8.20;48.01
34742;BME280;20968;42.696;23.360;2023-02-18T00:39:19;95952.00;;;8.09;47.73
34742;BME280;20968;42.696;23.360;2023-02-18T00:41:44;95951.53;;;8.10;47.82
34742;BME280;20968;42.696;23.360;2023-02-18T00:44:11;95957.25;;;8.16;47.79
34742;BME280;20968;42.696;23.360;2023-02-18T00:46:37;95953.88;;;7.99;47.92
34742;BME280;20968;42.696;23.360;2023-02-18T00:49:03;95946.31;;;7.91;48.12
34742;BME280;20968;42.696;23.360;2023-02-18T00:51:28;95951.41;;;7.80;48.12
34742;BME280;20968;42.696;23.360;2023-02-18T00:53:54;95946.56;;;7.71;48.63
34742;BME280;20968;42.696;23.360;2023-02-18T00:56:20;95941.09;;;7.71;48.65
34742;BME280;20968;42.696;23.360;2023-02-18T00:58:46;95948.56;;;7.71;49.22
34742;BME280;20968;42.696;23.360;2023-02-18T01:01:12;95952.38;;;7.73;48.95
34742;BME280;20968;42.696;23.360;2023-02-18T01:03:39;95950.72;;;7.76;49.30
34742;BME280;20968;42.696;23.360;2023-02-18T01:06:06;95953.69;;;7.69;48.75
34742;BME280;20968;42.696;23.360;2023-02-18T01:08:33;95959.84;;;7.61;49.24
34742;BME280;20968;42.696;23.360;2023-02-18T01:11:00;95949.88;;;7.42;49.22
34742;BME280;20968;42.696;23.360;2023-02-18T01:13:26;95946.38;;;7.41;49.53
34742;BME280;20968;42.696;23.360;2023-02-18T01:15:52;95948.13;;;7.35;49.13
34742;BME280;20968;42.696;23.360;2023-02-18T01:18:18;95949.69;;;7.36;49.11
34742;BME280;20968;42.696;23.360;2023-02-18T01:20:44;95937.28;;;7.32;49.54
34742;BME280;20968;42.696;23.360;2023-02-18T01:23:12;95950.19;;;7.31;49.27
34742;BME280;20968;42.696;23.360;2023-02-18T01:25:37;95932.22;;;7.18;49.94
34742;BME280;20968;42.696;23.360;2023-02-18T01:28:04;95943.75;;;7.25;49.49
34742;BME280;20968;42.696;23.360;2023-02-18T01:30:30;95943.41;;;7.23;49.98
34742;BME280;20968;42.696;23.360;2023-02-18T01:32:56;95935.97;;;7.24;49.72
34742;BME280;20968;42.696;23.360;2023-02-18T01:35:22;95923.69;;;7.16;50.01
34742;BME280;20968;42.696;23.360;2023-02-18T01:37:48;95929.94;;;7.16;49.99
34742;BME280;20968;42.696;23.360;2023-02-18T01:40:19;95930.59;;;7.20;50.43
34742;BME280;20968;42.696;23.360;2023-02-18T01:42:45;95944.69;;;7.06;50.39
34742;BME280;20968;42.696;23.360;2023-02-18T01:48:03;95948.97;;;7.07;50.59
34742;BME280;20968;42.696;23.360;2023-02-18T01:50:32;95953.47;;;7.01;50.81
34742;BME280;20968;42.696;23.360;2023-02-18T01:53:00;95947.94;;;6.77;51.29
34742;BME280;20968;42.696;23.360;2023-02-18T01:55:29;95962.53;;;6.29;51.89
34742;BME280;20968;42.696;23.360;2023-02-18T01:57:56;95964.91;;;6.43;51.47
34742;BME280;20968;42.696;23.360;2023-02-18T02:00:22;95952.84;;;6.41;51.80
34742;BME280;20968;42.696;23.360;2023-02-18T02:02:50;95960.44;;;6.49;51.17
34742;BME280;20968;42.696;23.360;2023-02-18T02:05:16;95946.09;;;6.45;51.78
34742;BME280;20968;42.696;23.360;2023-02-18T02:07:43;95941.16;;;6.40;51.63
34742;BME280;20968;42.696;23.360;2023-02-18T02:10:10;95937.78;;;6.49;51.94
34742;BME280;20968;42.696;23.360;2023-02-18T02:23:33;95962.25;;;6.40;52.78
34742;BME280;20968;42.696;23.360;2023-02-18T02:29:20;95953.19;;;6.43;52.63
34742;BME280;20968;42.696;23.360;2023-02-18T02:40:37;95940.66;;;6.58;52.76
34742;BME280;20968;42.696;23.360;2023-02-18T02:43:17;95932.38;;;6.61;52.67
34742;BME280;20968;42.696;23.360;2023-02-18T02:46:05;95931.41;;;6.68;52.55
34742;BME280;20968;42.696;23.360;2023-02-18T02:48:50;95925.59;;;6.66;51.85
34742;BME280;20968;42.696;23.360;2023-02-18T02:51:39;95929.31;;;6.72;52.43
34742;BME280;20968;42.696;23.360;2023-02-18T02:54:22;95925.19;;;6.80;52.18
34742;BME280;20968;42.696;23.360;2023-02-18T02:56:49;95941.94;;;6.82;51.76
34742;BME280;20968;42.696;23.360;2023-02-18T02:59:18;95948.06;;;6.86;51.67
34742;BME280;20968;42.696;23.360;2023-02-18T03:07:28;95947.41;;;6.82;51.48
34742;BME280;20968;42.696;23.360;2023-02-18T03:15:27;95931.81;;;6.66;51.67
34742;BME280;20968;42.696;23.360;2023-02-18T03:18:00;95937.63;;;6.68;51.46
34742;BME280;20968;42.696;23.360;2023-02-18T03:20:33;95949.03;;;6.67;51.44
34742;BME280;20968;42.696;23.360;2023-02-18T03:23:02;95956.53;;;6.63;51.34
34742;BME280;20968;42.696;23.360;2023-02-18T03:25:30;95961.34;;;6.59;51.33
34742;BME280;20968;42.696;23.360;2023-02-18T03:28:01;95974.78;;;6.53;51.59
34742;BME280;20968;42.696;23.360;2023-02-18T03:30:33;95983.53;;;6.48;51.79
34742;BME280;20968;42.696;23.360;2023-02-18T03:33:06;95984.81;;;6.44;51.47
34742;BME280;20968;42.696;23.360;2023-02-18T03:35:35;95981.59;;;6.33;51.92
34742;BME280;20968;42.696;23.360;2023-02-18T03:38:19;95991.94;;;6.41;51.85
34742;BME280;20968;42.696;23.360;2023-02-18T03:40:46;95984.84;;;6.28;52.32
34742;BME280;20968;42.696;23.360;2023-02-18T03:43:12;95976.41;;;6.22;52.25
34742;BME280;20968;42.696;23.360;2023-02-18T03:45:38;95991.72;;;6.20;52.18
34742;BME280;20968;42.696;23.360;2023-02-18T03:48:03;95989.81;;;6.17;52.17
34742;BME280;20968;42.696;23.360;2023-02-18T03:50:29;95986.84;;;6.12;52.93
34742;BME280;20968;42.696;23.360;2023-02-18T03:52:54;95994.63;;;6.13;53.17
34742;BME280;20968;42.696;23.360;2023-02-18T03:55:20;95991.28;;;6.06;52.88
34742;BME280;20968;42.696;23.360;2023-02-18T03:57:45;95989.66;;;6.08;52.90
34742;BME280;20968;42.696;23.360;2023-02-18T04:00:11;95993.63;;;6.07;52.86
34742;BME280;20968;42.696;23.360;2023-02-18T04:02:37;95986.16;;;6.08;53.44
34742;BME280;20968;42.696;23.360;2023-02-18T04:05:02;95986.75;;;6.15;53.08
34742;BME280;20968;42.696;23.360;2023-02-18T04:07:28;95988.06;;;6.11;53.77
34742;BME280;20968;42.696;23.360;2023-02-18T04:09:53;95986.34;;;6.17;52.88
34742;BME280;20968;42.696;23.360;2023-02-18T04:12:18;95986.16;;;6.23;53.17
34742;BME280;20968;42.696;23.360;2023-02-18T04:14:44;95976.31;;;6.26;53.09
34742;BME280;20968;42.696;23.360;2023-02-18T04:17:10;95982.38;;;6.33;53.15
34742;BME280;20968;42.696;23.360;2023-02-18T04:19:35;95960.50;;;6.33;53.05
34742;BME280;20968;42.696;23.360;2023-02-18T04:22:00;95970.09;;;6.25;53.08
34742;BME280;20968;42.696;23.360;2023-02-18T04:24:26;95961.06;;;5.97;52.87
34742;BME280;20968;42.696;23.360;2023-02-18T04:26:52;95969.88;;;6.04;53.19
34742;BME280;20968;42.696;23.360;2023-02-18T04:29:17;95952.63;;;6.07;52.77
34742;BME280;20968;42.696;23.360;2023-02-18T04:31:43;95957.19;;;6.10;52.74
34742;BME280;20968;42.696;23.360;2023-02-18T04:34:08;95962.75;;;6.07;52.86
34742;BME280;20968;42.696;23.360;2023-02-18T04:36:34;95963.88;;;6.09;51.90
34742;BME280;20968;42.696;23.360;2023-02-18T04:38:59;95948.94;;;5.98;51.99
34742;BME280;20968;42.696;23.360;2023-02-18T04:41:25;95959.88;;;5.98;52.47
34742;BME280;20968;42.696;23.360;2023-02-18T04:43:50;95974.91;;;5.90;52.96
34742;BME280;20968;42.696;23.360;2023-02-18T04:46:16;95975.69;;;5.90;52.57
34742;BME280;20968;42.696;23.360;2023-02-18T04:48:42;95974.81;;;5.77;52.86
34742;BME280;20968;42.696;23.360;2023-02-18T04:51:07;95964.25;;;5.79;52.50
34742;BME280;20968;42.696;23.360;2023-02-18T04:53:33;95974.13;;;5.73;52.90
34742;BME280;20968;42.696;23.360;2023-02-18T04:55:58;95986.25;;;5.72;53.21
34742;BME280;20968;42.696;23.360;2023-02-18T04:58:24;95984.22;;;5.76;53.61
34742;BME280;20968;42.696;23.360;2023-02-18T05:00:50;95986.09;;;5.79;53.45
34742;BME280;20968;42.696;23.360;2023-02-18T05:03:16;95986.09;;;5.79;53.52
34742;BME280;20968;42.696;23.360;2023-02-18T05:05:41;95991.81;;;5.85;53.41
34742;BME280;20968;42.696;23.360;2023-02-18T05:08:07;95994.16;;;5.67;53.91
34742;BME280;20968;42.696;23.360;2023-02-18T05:10:33;95973.50;;;5.66;55.01
34742;BME280;20968;42.696;23.360;2023-02-18T05:12:58;95974.81;;;5.61;55.86
34742;BME280;20968;42.696;23.360;2023-02-18T05:15:24;95976.16;;;5.53;55.22
34742;BME280;20968;42.696;23.360;2023-02-18T05:17:50;95965.56;;;5.55;55.14
34742;BME280;20968;42.696;23.360;2023-02-18T05:20:15;95963.44;;;5.63;55.80
34742;BME280;20968;42.696;23.360;2023-02-18T05:22:41;95959.44;;;5.67;55.52
34742;BME280;20968;42.696;23.360;2023-02-18T05:25:07;95949.19;;;5.71;55.52
34742;BME280;20968;42.696;23.360;2023-02-18T05:27:32;95961.50;;;5.79;54.88
34742;BME280;20968;42.696;23.360;2023-02-18T05:29:58;95975.78;;;5.87;54.74
34742;BME280;20968;42.696;23.360;2023-02-18T05:32:23;95968.34;;;5.87;54.64
34742;BME280;20968;42.696;23.360;2023-02-18T05:34:49;95965.50;;;5.91;55.09
34742;BME280;20968;42.696;23.360;2023-02-18T05:37:14;95981.22;;;6.03;55.17
34742;BME280;20968;42.696;23.360;2023-02-18T05:39:41;95984.91;;;5.80;55.10
34742;BME280;20968;42.696;23.360;2023-02-18T05:42:06;95983.00;;;5.45;55.90
34742;BME280;20968;42.696;23.360;2023-02-18T05:44:32;95984.50;;;5.62;55.14
34742;BME280;20968;42.696;23.360;2023-02-18T05:46:59;95975.31;;;5.72;54.89
34742;BME280;20968;42.696;23.360;2023-02-18T05:49:25;95979.00;;;5.82;54.93
34742;BME280;20968;42.696;23.360;2023-02-18T05:51:51;95984.63;;;5.91;54.49
34742;BME280;20968;42.696;23.360;2023-02-18T05:54:16;95994.47;;;6.04;54.73
34742;BME280;20968;42.696;23.360;2023-02-18T05:56:42;95998.56;;;6.12;54.33
34742;BME280;20968;42.696;23.360;2023-02-18T05:59:07;95983.16;;;6.18;54.28
34742;BME280;20968;42.696;23.360;2023-02-18T06:01:32;95977.16;;;6.23;54.25
34742;BME280;20968;42.696;23.360;2023-02-18T06:03:58;95995.78;;;6.28;53.67
34742;BME280;20968;42.696;23.360;2023-02-18T06:06:23;95999.53;;;6.34;53.69
34742;BME280;20968;42.696;23.360;2023-02-18T06:08:49;95969.81;;;6.36;53.61
34742;BME280;20968;42.696;23.360;2023-02-18T06:11:14;95990.75;;;6.55;53.80
34742;BME280;20968;42.696;23.360;2023-02-18T06:13:40;95989.03;;;6.61;53.56
34742;BME280;20968;42.696;23.360;2023-02-18T06:16:05;95986.44;;;6.70;54.02
34742;BME280;20968;42.696;23.360;2023-02-18T06:18:31;95979.56;;;6.78;53.74
34742;BME280;20968;42.696;23.360;2023-02-18T06:20:56;95976.97;;;6.87;54.07
34742;BME280;20968;42.696;23.360;2023-02-18T06:23:21;95976.56;;;7.00;53.86
34742;BME280;20968;42.696;23.360;2023-02-18T06:25:48;95967.38;;;7.07;53.62
34742;BME280;20968;42.696;23.360;2023-02-18T06:28:13;95974.53;;;7.17;53.07
34742;BME280;20968;42.696;23.360;2023-02-18T06:30:39;95972.00;;;7.22;53.36
34742;BME280;20968;42.696;23.360;2023-02-18T06:33:04;95960.28;;;7.34;52.80
34742;BME280;20968;42.696;23.360;2023-02-18T06:35:30;95970.91;;;7.45;52.88
34742;BME280;20968;42.696;23.360;2023-02-18T06:37:56;95979.88;;;7.33;53.02
34742;BME280;20968;42.696;23.360;2023-02-18T06:40:21;95984.94;;;7.34;53.01
34742;BME280;20968;42.696;23.360;2023-02-18T06:42:46;95982.22;;;7.34;52.59
34742;BME280;20968;42.696;23.360;2023-02-18T06:45:12;95979.25;;;7.41;52.30
34742;BME280;20968;42.696;23.360;2023-02-18T06:47:37;95972.88;;;7.44;51.90
34742;BME280;20968;42.696;23.360;2023-02-18T06:50:03;95975.31;;;7.55;52.39
34742;BME280;20968;42.696;23.360;2023-02-18T06:52:29;95976.41;;;7.57;51.99
34742;BME280;20968;42.696;23.360;2023-02-18T06:54:57;95969.63;;;7.49;52.21
34742;BME280;20968;42.696;23.360;2023-02-18T06:57:23;95982.22;;;7.59;52.87
34742;BME280;20968;42.696;23.360;2023-02-18T06:59:48;95975.50;;;7.60;52.36
34742;BME280;20968;42.696;23.360;2023-02-18T07:02:14;95977.03;;;7.86;64.31
34742;BME280;20968;42.696;23.360;2023-02-18T07:04:39;95971.25;;;8.43;58.76
34742;BME280;20968;42.696;23.360;2023-02-18T07:07:04;95974.63;;;8.47;54.68
34742;BME280;20968;42.696;23.360;2023-02-18T07:09:30;95973.41;;;8.48;53.89
34742;BME280;20968;42.696;23.360;2023-02-18T07:11:55;95986.31;;;8.59;52.07
34742;BME280;20968;42.696;23.360;2023-02-18T07:14:21;95968.50;;;8.64;51.46
34742;BME280;20968;42.696;23.360;2023-02-18T07:16:48;95966.84;;;8.66;51.60
34742;BME280;20968;42.696;23.360;2023-02-18T07:19:14;95952.63;;;8.59;51.64
34742;BME280;20968;42.696;23.360;2023-02-18T07:21:39;95970.44;;;8.76;50.59
34742;BME280;20968;42.696;23.360;2023-02-18T07:24:05;95961.41;;;8.75;50.64
34742;BME280;20968;42.696;23.360;2023-02-18T07:26:30;95960.78;;;8.71;51.07
34742;BME280;20968;42.696;23.360;2023-02-18T07:28:56;95959.13;;;8.74;51.58
34742;BME280;20968;42.696;23.360;2023-02-18T07:31:21;95960.88;;;8.80;50.72
34742;BME280;20968;42.696;23.360;2023-02-18T07:33:47;95971.84;;;8.80;50.29
34742;BME280;20968;42.696;23.360;2023-02-18T07:36:12;95975.88;;;8.88;50.34
34742;BME280;20968;42.696;23.360;2023-02-18T07:38:38;95974.88;;;8.82;49.82
34742;BME280;20968;42.696;23.360;2023-02-18T07:41:03;95981.09;;;8.95;50.09
34742;BME280;20968;42.696;23.360;2023-02-18T07:43:29;95977.31;;;9.02;49.49
34742;BME280;20968;42.696;23.360;2023-02-18T07:45:54;95971.06;;;9.01;49.30
34742;BME280;20968;42.696;23.360;2023-02-18T07:48:19;95974.81;;;9.16;48.26
34742;BME280;20968;42.696;23.360;2023-02-18T07:50:45;95975.41;;;9.11;47.55
34742;BME280;20968;42.696;23.360;2023-02-18T07:53:13;95985.69;;;9.20;46.74
34742;BME280;20968;42.696;23.360;2023-02-18T07:55:39;95971.75;;;9.14;47.25
34742;BME280;20968;42.696;23.360;2023-02-18T07:58:25;95971.94;;;8.98;47.52
34742;BME280;20968;42.696;23.360;2023-02-18T08:00:51;95962.25;;;8.85;47.72
34742;BME280;20968;42.696;23.360;2023-02-18T08:03:23;95975.34;;;9.02;48.41
34742;BME280;20968;42.696;23.360;2023-02-18T08:05:49;95969.38;;;9.25;46.19
34742;BME280;20968;42.696;23.360;2023-02-18T08:08:18;95979.19;;;9.35;47.04
34742;BME280;20968;42.696;23.360;2023-02-18T08:10:45;95979.44;;;9.49;47.00
34742;BME280;20968;42.696;23.360;2023-02-18T08:13:10;95966.25;;;9.75;46.15
34742;BME280;20968;42.696;23.360;2023-02-18T08:15:36;95957.59;;;9.94;46.67
34742;BME280;20968;42.696;23.360;2023-02-18T08:18:02;95952.09;;;9.94;45.80
34742;BME280;20968;42.696;23.360;2023-02-18T08:20:28;95958.50;;;9.91;45.38
34742;BME280;20968;42.696;23.360;2023-02-18T08:22:53;95968.19;;;10.05;45.99
34742;BME280;20968;42.696;23.360;2023-02-18T08:25:19;95971.00;;;10.31;45.16
34742;BME280;20968;42.696;23.360;2023-02-18T08:27:44;95959.53;;;10.42;44.95
34742;BME280;20968;42.696;23.360;2023-02-18T08:30:10;95959.09;;;10.52;44.96
34742;BME280;20968;42.696;23.360;2023-02-18T08:32:36;95962.16;;;10.54;44.30
34742;BME280;20968;42.696;23.360;2023-02-18T08:35:01;95966.13;;;10.71;44.14
34742;BME280;20968;42.696;23.360;2023-02-18T08:37:27;95959.06;;;10.79;44.30
34742;BME280;20968;42.696;23.360;2023-02-18T08:39:53;95946.25;;;10.85;43.67
34742;BME280;20968;42.696;23.360;2023-02-18T08:42:19;95933.22;;;10.68;44.17
34742;BME280;20968;42.696;23.360;2023-02-18T08:44:44;95937.97;;;10.76;44.53
34742;BME280;20968;42.696;23.360;2023-02-18T08:47:09;95949.44;;;11.01;43.88
34742;BME280;20968;42.696;23.360;2023-02-18T08:49:35;95958.13;;;11.18;44.04
34742;BME280;20968;42.696;23.360;2023-02-18T08:52:02;95950.59;;;11.27;44.30
34742;BME280;20968;42.696;23.360;2023-02-18T08:54:27;95953.19;;;11.31;43.62
34742;BME280;20968;42.696;23.360;2023-02-18T08:56:54;95960.53;;;11.34;43.28
34742;BME280;20968;42.696;23.360;2023-02-18T08:59:22;95948.59;;;11.37;43.74
34742;BME280;20968;42.696;23.360;2023-02-18T09:01:48;95956.34;;;11.47;43.41
34742;BME280;20968;42.696;23.360;2023-02-18T09:04:13;95955.75;;;11.52;43.47
34742;BME280;20968;42.696;23.360;2023-02-18T09:06:38;95938.59;;;11.57;42.86
34742;BME280;20968;42.696;23.360;2023-02-18T09:09:05;95952.28;;;11.75;42.63
34742;BME280;20968;42.696;23.360;2023-02-18T09:11:31;95958.13;;;11.77;42.13
34742;BME280;20968;42.696;23.360;2023-02-18T09:13:56;95942.28;;;11.86;41.61
34742;BME280;20968;42.696;23.360;2023-02-18T09:16:22;95949.47;;;11.93;41.99
34742;BME280;20968;42.696;23.360;2023-02-18T09:18:48;95944.06;;;11.98;41.58
34742;BME280;20968;42.696;23.360;2023-02-18T09:21:16;95947.09;;;12.00;41.44
34742;BME280;20968;42.696;23.360;2023-02-18T09:23:44;95948.94;;;12.03;41.93
34742;BME280;20968;42.696;23.360;2023-02-18T09:26:13;95945.31;;;12.21;41.77
34742;BME280;20968;42.696;23.360;2023-02-18T09:28:39;95941.75;;;12.29;41.73
34742;BME280;20968;42.696;23.360;2023-02-18T09:31:06;95938.44;;;12.40;41.00
34742;BME280;20968;42.696;23.360;2023-02-18T09:33:35;95935.03;;;12.44;42.08
34742;BME280;20968;42.696;23.360;2023-02-18T09:36:01;95931.38;;;12.76;41.57
34742;BME280;20968;42.696;23.360;2023-02-18T09:38:27;95912.44;;;12.84;40.99
34742;BME280;20968;42.696;23.360;2023-02-18T09:40:53;95931.94;;;13.04;40.12
34742;BME280;20968;42.696;23.360;2023-02-18T09:43:28;95932.31;;;12.97;39.86
34742;BME280;20968;42.696;23.360;2023-02-18T09:45:55;95927.94;;;13.05;40.90
34742;BME280;20968;42.696;23.360;2023-02-18T09:48:26;95920.81;;;13.13;39.70
34742;BME280;20968;42.696;23.360;2023-02-18T09:50:53;95936.91;;;13.14;40.25
34742;BME280;20968;42.696;23.360;2023-02-18T09:53:20;95937.47;;;13.18;40.70
34742;BME280;20968;42.696;23.360;2023-02-18T09:55:47;95927.56;;;13.26;39.87
34742;BME280;20968;42.696;23.360;2023-02-18T09:58:15;95924.81;;;13.12;39.32
34742;BME280;20968;42.696;23.360;2023-02-18T10:00:51;95914.03;;;13.14;40.02
34742;BME280;20968;42.696;23.360;2023-02-18T10:03:19;95913.16;;;13.08;40.33
34742;BME280;20968;42.696;23.360;2023-02-18T10:06:09;95914.78;;;13.14;39.74
34742;BME280;20968;42.696;23.360;2023-02-18T10:08:39;95904.78;;;13.31;39.83
34742;BME280;20968;42.696;23.360;2023-02-18T10:11:16;95904.81;;;13.65;39.89
34742;BME280;20968;42.696;23.360;2023-02-18T10:13:43;95900.16;;;13.91;38.48
34742;BME280;20968;42.696;23.360;2023-02-18T10:16:14;95906.41;;;14.20;38.61
34742;BME280;20968;42.696;23.360;2023-02-18T10:18:43;95895.78;;;14.59;37.91
34742;BME280;20968;42.696;23.360;2023-02-18T10:21:19;95895.88;;;15.09;37.49
34742;BME280;20968;42.696;23.360;2023-02-18T10:26:23;95878.72;;;15.36;35.33
34742;BME280;20968;42.696;23.360;2023-02-18T10:28:49;95872.19;;;15.39;33.27
34742;BME280;20968;42.696;23.360;2023-02-18T10:31:27;95877.69;;;15.64;33.76
34742;BME280;20968;42.696;23.360;2023-02-18T10:37:03;95864.75;;;15.92;32.82
34742;BME280;20968;42.696;23.360;2023-02-18T10:39:44;95867.44;;;16.23;31.62
34742;BME280;20968;42.696;23.360;2023-02-18T10:45:41;95842.81;;;16.47;29.78
34742;BME280;20968;42.696;23.360;2023-02-18T10:48:16;95846.19;;;16.67;30.70
34742;BME280;20968;42.696;23.360;2023-02-18T10:50:46;95843.94;;;16.82;29.80
34742;BME280;20968;42.696;23.360;2023-02-18T10:55:43;95841.47;;;17.17;29.28
34742;BME280;20968;42.696;23.360;2023-02-18T11:01:22;95827.56;;;17.39;29.31
34742;BME280;20968;42.696;23.360;2023-02-18T11:04:02;95827.00;;;17.02;28.84
34742;BME280;20968;42.696;23.360;2023-02-18T11:06:44;95832.31;;;16.84;29.62
34742;BME280;20968;42.696;23.360;2023-02-18T11:09:38;95827.25;;;16.82;29.41
34742;BME280;20968;42.696;23.360;2023-02-18T11:12:13;95823.69;;;16.71;30.86
34742;BME280;20968;42.696;23.360;2023-02-18T11:14:48;95821.69;;;16.99;28.97
34742;BME280;20968;42.696;23.360;2023-02-18T11:17:26;95806.78;;;16.85;29.33
34742;BME280;20968;42.696;23.360;2023-02-18T11:20:00;95803.38;;;16.43;29.63
34742;BME280;20968;42.696;23.360;2023-02-18T11:22:31;95795.97;;;16.29;30.11
34742;BME280;20968;42.696;23.360;2023-02-18T11:25:00;95803.25;;;16.16;30.15
34742;BME280;20968;42.696;23.360;2023-02-18T11:27:43;95785.47;;;15.97;30.59
34742;BME280;20968;42.696;23.360;2023-02-18T11:30:20;95789.78;;;15.98;30.33
34742;BME280;20968;42.696;23.360;2023-02-18T11:32:53;95764.97;;;15.89;30.17
34742;BME280;20968;42.696;23.360;2023-02-18T11:35:23;95778.13;;;15.88;30.40
34742;BME280;20968;42.696;23.360;2023-02-18T11:37:50;95767.75;;;15.89;30.63
34742;BME280;20968;42.696;23.360;2023-02-18T11:40:30;95763.56;;;16.10;30.97
34742;BME280;20968;42.696;23.360;2023-02-18T11:43:04;95763.88;;;16.28;30.94
34742;BME280;20968;42.696;23.360;2023-02-18T11:45:32;95764.41;;;16.32;31.02
34742;BME280;20968;42.696;23.360;2023-02-18T11:48:14;95756.09;;;16.38;30.79
34742;BME280;20968;42.696;23.360;2023-02-18T11:50:40;95759.72;;;16.76;30.70
34742;BME280;20968;42.696;23.360;2023-02-18T11:53:26;95765.53;;;17.11;30.57
34742;BME280;20968;42.696;23.360;2023-02-18T11:55:58;95755.44;;;17.24;30.20
34742;BME280;20968;42.696;23.360;2023-02-18T11:58:24;95735.94;;;17.19;30.37
34742;BME280;20968;42.696;23.360;2023-02-18T12:00:52;95745.56;;;17.40;30.51
34742;BME280;20968;42.696;23.360;2023-02-18T12:03:44;95725.56;;;17.41;30.71
34742;BME280;20968;42.696;23.360;2023-02-18T12:06:29;95720.69;;;17.64;30.14
34742;BME280;20968;42.696;23.360;2023-02-18T12:09:06;95732.00;;;17.93;30.05
34742;BME280;20968;42.696;23.360;2023-02-18T12:11:42;95725.34;;;18.07;29.69
34742;BME280;20968;42.696;23.360;2023-02-18T12:14:16;95715.91;;;18.15;29.72
34742;BME280;20968;42.696;23.360;2023-02-18T12:35:20;95696.69;;;17.44;31.75
34742;BME280;20968;42.696;23.360;2023-02-18T12:49:59;95672.84;;;17.65;31.52
34742;BME280;20968;42.696;23.360;2023-02-18T13:01:05;95665.38;;;17.90;30.70
34742;BME280;20968;42.696;23.360;2023-02-18T13:06:43;95660.44;;;18.12;30.28
34742;BME280;20968;42.696;23.360;2023-02-18T13:14:48;95657.09;;;18.24;30.33
34742;BME280;20968;42.696;23.360;2023-02-18T13:17:17;95646.66;;;18.30;30.31
34742;BME280;20968;42.696;23.360;2023-02-18T13:19:51;95653.44;;;18.40;30.63
34742;BME280;20968;42.696;23.360;2023-02-18T13:22:21;95653.03;;;18.25;30.00
34742;BME280;20968;42.696;23.360;2023-02-18T13:24:48;95658.75;;;17.98;30.86
34742;BME280;20968;42.696;23.360;2023-02-18T13:35:45;95664.06;;;17.23;32.28
34742;BME280;20968;42.696;23.360;2023-02-18T13:41:20;95654.72;;;16.99;32.66
34742;BME280;20968;42.696;23.360;2023-02-18T13:43:46;95661.59;;;16.92;33.04
34742;BME280;20968;42.696;23.360;2023-02-18T13:46:14;95659.28;;;16.91;32.72
34742;BME280;20968;42.696;23.360;2023-02-18T13:51:44;95664.38;;;16.76;33.33
34742;BME280;20968;42.696;23.360;2023-02-18T13:56:39;95652.50;;;16.70;33.11
34742;BME280;20968;42.696;23.360;2023-02-18T14:01:53;95651.25;;;16.54;33.18
34742;BME280;20968;42.696;23.360;2023-02-18T14:10:03;95657.28;;;16.53;33.90
34742;BME280;20968;42.696;23.360;2023-02-18T14:14:54;95650.97;;;16.36;33.63
34742;BME280;20968;42.696;23.360;2023-02-18T14:22:42;95666.59;;;16.28;34.00
34742;BME280;20968;42.696;23.360;2023-02-18T14:27:34;95663.53;;;16.21;34.21
34742;BME280;20968;42.696;23.360;2023-02-18T14:30:07;95657.72;;;16.19;34.22
34742;BME280;20968;42.696;23.360;2023-02-18T14:32:40;95653.91;;;16.11;33.97
34742;BME280;20968;42.696;23.360;2023-02-18T14:35:34;95666.31;;;16.21;34.53
34742;BME280;20968;42.696;23.360;2023-02-18T14:38:17;95667.81;;;16.16;34.43
34742;BME280;20968;42.696;23.360;2023-02-18T14:46:10;95662.84;;;16.42;34.30
34742;BME280;20968;42.696;23.360;2023-02-18T14:51:09;95662.88;;;16.47;34.21
34742;BME280;20968;42.696;23.360;2023-02-18T14:53:42;95658.53;;;16.52;34.02
34742;BME280;20968;42.696;23.360;2023-02-18T14:56:12;95647.16;;;16.39;34.41
34742;BME280;20968;42.696;23.360;2023-02-18T14:58:42;95654.50;;;16.42;34.41
34742;BME280;20968;42.696;23.360;2023-02-18T15:01:18;95653.75;;;16.41;33.96
34742;BME280;20968;42.696;23.360;2023-02-18T15:03:46;95645.91;;;16.35;34.14
34742;BME280;20968;42.696;23.360;2023-02-18T15:06:27;95643.09;;;16.24;34.71
34742;BME280;20968;42.696;23.360;2023-02-18T15:08:57;95647.63;;;16.16;34.58
34742;BME280;20968;42.696;23.360;2023-02-18T15:11:29;95639.47;;;15.96;34.87
34742;BME280;20968;42.696;23.360;2023-02-18T15:13:58;95647.03;;;15.84;34.80
34742;BME280;20968;42.696;23.360;2023-02-18T15:16:29;95650.28;;;15.72;35.03
34742;BME280;20968;42.696;23.360;2023-02-18T15:18:58;95648.47;;;15.63;35.67
34742;BME280;20968;42.696;23.360;2023-02-18T15:21:28;95642.94;;;15.63;35.67
34742;BME280;20968;42.696;23.360;2023-02-18T15:24:04;95646.69;;;15.55;35.87